sensor_id;sensor_type;location;lat;lon;timestamp;temperature;humidity
54684;DHT22;40582;53.100;6.686;2022-09-30T00:01:09;7.80;99.90
54684;DHT22;40582;53.100;6.686;2022-09-30T00:03:35;7.80;99.90
54684;DHT22;40582;53.100;6.686;2022-09-30T00:06:05;7.80;99.90
54684;DHT22;40582;53.100;6.686;2022-09-30T00:08:31;7.80;99.90
54684;DHT22;40582;53.100;6.686;2022-09-30T00:11:10;7.80;99.90
54684;DHT22;40582;53.100;6.686;2022-09-30T00:13:38;7.80;99.90
54684;DHT22;40582;53.100;6.686;2022-09-30T00:16:05;7.80;99.90
54684;DHT22;40582;53.100;6.686;2022-09-30T00:18:31;7.80;99.90
54684;DHT22;40582;53.100;6.686;2022-09-30T00:20:58;7.80;99.90
54684;DHT22;40582;53.100;6.686;2022-09-30T00:23:24;7.80;99.90
54684;DHT22;40582;53.100;6.686;2022-09-30T00:25:55;7.80;99.90
54684;DHT22;40582;53.100;6.686;2022-09-30T00:28:22;7.80;99.90
54684;DHT22;40582;53.100;6.686;2022-09-30T00:30:47;7.90;99.90
54684;DHT22;40582;53.100;6.686;2022-09-30T00:33:13;7.70;99.90
54684;DHT22;40582;53.100;6.686;2022-09-30T00:35:39;7.70;99.90
54684;DHT22;40582;53.100;6.686;2022-09-30T00:38:04;7.60;99.90
54684;DHT22;40582;53.100;6.686;2022-09-30T00:40:30;7.60;99.90
54684;DHT22;40582;53.100;6.686;2022-09-30T00:42:56;7.60;99.90
54684;DHT22;40582;53.100;6.686;2022-09-30T00:45:25;7.60;99.90
54684;DHT22;40582;53.100;6.686;2022-09-30T00:48:10;7.60;99.90
54684;DHT22;40582;53.100;6.686;2022-09-30T00:50:42;7.60;99.90
54684;DHT22;40582;53.100;6.686;2022-09-30T00:53:19;7.60;99.90
54684;DHT22;40582;53.100;6.686;2022-09-30T00:55:56;7.50;99.90
54684;DHT22;40582;53.100;6.686;2022-09-30T01:00:59;7.50;99.90
54684;DHT22;40582;53.100;6.686;2022-09-30T01:03:29;7.60;99.90
54684;DHT22;40582;53.100;6.686;2022-09-30T01:05:55;7.50;99.90
54684;DHT22;40582;53.100;6.686;2022-09-30T01:08:22;7.40;99.90
54684;DHT22;40582;53.100;6.686;2022-09-30T01:10:48;7.50;99.90
54684;DHT22;40582;53.100;6.686;2022-09-30T01:13:16;7.40;99.90
54684;DHT22;40582;53.100;6.686;2022-09-30T01:19:04;7.40;99.90
54684;DHT22;40582;53.100;6.686;2022-09-30T01:33:16;7.20;99.90
54684;DHT22;40582;53.100;6.686;2022-09-30T01:44:00;7.10;99.90
54684;DHT22;40582;53.100;6.686;2022-09-30T01:46:36;7.10;99.90
54684;DHT22;40582;53.100;6.686;2022-09-30T01:49:31;7.70;99.90
54684;DHT22;40582;53.100;6.686;2022-09-30T01:52:24;7.10;99.90
54684;DHT22;40582;53.100;6.686;2022-09-30T01:54:58;7.20;99.90
54684;DHT22;40582;53.100;6.686;2022-09-30T01:57:40;7.20;99.90
54684;DHT22;40582;53.100;6.686;2022-09-30T02:00:09;7.20;99.90
54684;DHT22;40582;53.100;6.686;2022-09-30T02:02:41;7.20;99.90
54684;DHT22;40582;53.100;6.686;2022-09-30T02:05:11;7.30;99.90
54684;DHT22;40582;53.100;6.686;2022-09-30T02:07:44;7.30;99.90
54684;DHT22;40582;53.100;6.686;2022-09-30T02:10:15;7.20;99.90
54684;DHT22;40582;53.100;6.686;2022-09-30T02:12:47;7.30;99.90
54684;DHT22;40582;53.100;6.686;2022-09-30T02:15:22;7.30;99.90
54684;DHT22;40582;53.100;6.686;2022-09-30T02:18:03;7.30;99.90
54684;DHT22;40582;53.100;6.686;2022-09-30T02:20:34;7.30;99.90
54684;DHT22;40582;53.100;6.686;2022-09-30T02:23:18;7.20;99.90
54684;DHT22;40582;53.100;6.686;2022-09-30T02:25:53;7.20;99.90
54684;DHT22;40582;53.100;6.686;2022-09-30T02:28:24;7.20;99.90
54684;DHT22;40582;53.100;6.686;2022-09-30T02:30:54;7.20;99.90
54684;DHT22;40582;53.100;6.686;2022-09-30T02:33:48;7.20;99.90
54684;DHT22;40582;53.100;6.686;2022-09-30T02:36:23;7.20;99.90
54684;DHT22;40582;53.100;6.686;2022-09-30T02:38:59;7.30;99.90
54684;DHT22;40582;53.100;6.686;2022-09-30T02:41:28;7.20;99.90
54684;DHT22;40582;53.100;6.686;2022-09-30T02:43:56;7.20;99.90
54684;DHT22;40582;53.100;6.686;2022-09-30T02:46:48;7.20;99.90
54684;DHT22;40582;53.100;6.686;2022-09-30T02:49:31;7.10;99.90
54684;DHT22;40582;53.100;6.686;2022-09-30T02:57:56;6.70;99.90
54684;DHT22;40582;53.100;6.686;2022-09-30T03:00:23;6.70;99.90
54684;DHT22;40582;53.100;6.686;2022-09-30T03:02:54;6.80;99.90
54684;DHT22;40582;53.100;6.686;2022-09-30T03:05:22;6.70;99.90
54684;DHT22;40582;53.100;6.686;2022-09-30T03:07:48;6.70;99.90
54684;DHT22;40582;53.100;6.686;2022-09-30T03:10:15;6.70;99.90
54684;DHT22;40582;53.100;6.686;2022-09-30T03:26:16;6.70;99.90
54684;DHT22;40582;53.100;6.686;2022-09-30T03:29:05;6.60;99.90
54684;DHT22;40582;53.100;6.686;2022-09-30T03:31:51;6.60;99.90
54684;DHT22;40582;53.100;6.686;2022-09-30T03:34:29;6.70;99.90
54684;DHT22;40582;53.100;6.686;2022-09-30T03:40:00;6.60;99.90
54684;DHT22;40582;53.100;6.686;2022-09-30T03:42:46;6.60;99.90
54684;DHT22;40582;53.100;6.686;2022-09-30T03:45:27;6.60;99.90
54684;DHT22;40582;53.100;6.686;2022-09-30T03:47:57;6.60;99.90
54684;DHT22;40582;53.100;6.686;2022-09-30T03:50:27;6.50;99.90
54684;DHT22;40582;53.100;6.686;2022-09-30T03:52:53;6.50;99.90
54684;DHT22;40582;53.100;6.686;2022-09-30T03:55:22;6.50;99.90
54684;DHT22;40582;53.100;6.686;2022-09-30T03:57:48;6.50;99.90
54684;DHT22;40582;53.100;6.686;2022-09-30T04:00:14;6.50;99.90
54684;DHT22;40582;53.100;6.686;2022-09-30T04:02:40;6.60;99.90
54684;DHT22;40582;53.100;6.686;2022-09-30T04:05:06;6.60;99.90
54684;DHT22;40582;53.100;6.686;2022-09-30T04:07:33;6.50;99.90
54684;DHT22;40582;53.100;6.686;2022-09-30T04:09:59;6.60;99.90
54684;DHT22;40582;53.100;6.686;2022-09-30T04:12:24;6.50;99.90
54684;DHT22;40582;53.100;6.686;2022-09-30T04:14:50;6.70;99.90
54684;DHT22;40582;53.100;6.686;2022-09-30T04:17:16;6.50;99.90
54684;DHT22;40582;53.100;6.686;2022-09-30T04:19:43;6.50;99.90
54684;DHT22;40582;53.100;6.686;2022-09-30T04:22:09;6.50;99.90
54684;DHT22;40582;53.100;6.686;2022-09-30T04:24:35;6.50;99.90
54684;DHT22;40582;53.100;6.686;2022-09-30T04:27:01;6.50;99.90
54684;DHT22;40582;53.100;6.686;2022-09-30T04:29:27;6.90;99.90
54684;DHT22;40582;53.100;6.686;2022-09-30T04:31:53;6.40;99.90
54684;DHT22;40582;53.100;6.686;2022-09-30T04:34:19;6.40;99.90
54684;DHT22;40582;53.100;6.686;2022-09-30T04:36:44;6.80;99.90
54684;DHT22;40582;53.100;6.686;2022-09-30T04:39:10;6.60;99.90
54684;DHT22;40582;53.100;6.686;2022-09-30T04:41:36;6.30;99.90
54684;DHT22;40582;53.100;6.686;2022-09-30T04:44:02;6.30;99.90
54684;DHT22;40582;53.100;6.686;2022-09-30T04:46:35;6.30;99.90
54684;DHT22;40582;53.100;6.686;2022-09-30T04:49:04;6.30;99.90
54684;DHT22;40582;53.100;6.686;2022-09-30T04:51:31;6.60;99.90
54684;DHT22;40582;53.100;6.686;2022-09-30T04:53:57;6.30;99.90
54684;DHT22;40582;53.100;6.686;2022-09-30T04:56:23;6.30;99.90
54684;DHT22;40582;53.100;6.686;2022-09-30T04:58:51;6.20;99.90
54684;DHT22;40582;53.100;6.686;2022-09-30T05:01:17;6.20;99.90
54684;DHT22;40582;53.100;6.686;2022-09-30T05:03:44;6.20;99.90
54684;DHT22;40582;53.100;6.686;2022-09-30T05:06:10;6.10;99.90
54684;DHT22;40582;53.100;6.686;2022-09-30T05:08:37;6.20;99.90
54684;DHT22;40582;53.100;6.686;2022-09-30T05:11:05;6.10;99.90
54684;DHT22;40582;53.100;6.686;2022-09-30T05:13:35;6.10;99.90
54684;DHT22;40582;53.100;6.686;2022-09-30T05:16:01;6.30;99.90
54684;DHT22;40582;53.100;6.686;2022-09-30T05:18:27;6.20;99.90
54684;DHT22;40582;53.100;6.686;2022-09-30T05:20:54;6.20;99.90
54684;DHT22;40582;53.100;6.686;2022-09-30T05:23:23;6.20;99.90
54684;DHT22;40582;53.100;6.686;2022-09-30T05:25:50;6.20;99.90
54684;DHT22;40582;53.100;6.686;2022-09-30T05:28:16;6.40;99.90
54684;DHT22;40582;53.100;6.686;2022-09-30T05:30:43;6.10;99.90
54684;DHT22;40582;53.100;6.686;2022-09-30T05:33:10;6.10;99.90
54684;DHT22;40582;53.100;6.686;2022-09-30T05:35:37;6.40;99.90
54684;DHT22;40582;53.100;6.686;2022-09-30T05:38:03;6.50;99.90
54684;DHT22;40582;53.100;6.686;2022-09-30T05:40:30;6.20;99.90
54684;DHT22;40582;53.100;6.686;2022-09-30T05:42:57;6.20;99.90
54684;DHT22;40582;53.100;6.686;2022-09-30T05:45:23;6.20;99.90
54684;DHT22;40582;53.100;6.686;2022-09-30T05:47:55;6.20;99.90
54684;DHT22;40582;53.100;6.686;2022-09-30T05:50:23;6.10;99.90
54684;DHT22;40582;53.100;6.686;2022-09-30T05:52:49;6.20;99.90
54684;DHT22;40582;53.100;6.686;2022-09-30T05:55:16;6.00;99.90
54684;DHT22;40582;53.100;6.686;2022-09-30T05:57:42;6.10;99.90
54684;DHT22;40582;53.100;6.686;2022-09-30T06:00:08;6.40;99.90
54684;DHT22;40582;53.100;6.686;2022-09-30T06:02:34;6.10;99.90
54684;DHT22;40582;53.100;6.686;2022-09-30T06:05:04;6.10;99.90
54684;DHT22;40582;53.100;6.686;2022-09-30T06:07:30;6.20;99.90
54684;DHT22;40582;53.100;6.686;2022-09-30T06:09:57;6.30;99.90
54684;DHT22;40582;53.100;6.686;2022-09-30T06:12:23;6.30;99.90
54684;DHT22;40582;53.100;6.686;2022-09-30T06:14:51;6.30;99.90
54684;DHT22;40582;53.100;6.686;2022-09-30T06:17:18;6.40;99.90
54684;DHT22;40582;53.100;6.686;2022-09-30T06:19:43;6.30;99.90
54684;DHT22;40582;53.100;6.686;2022-09-30T06:22:09;6.40;99.90
54684;DHT22;40582;53.100;6.686;2022-09-30T06:24:35;6.40;99.90
54684;DHT22;40582;53.100;6.686;2022-09-30T06:27:00;6.50;99.90
54684;DHT22;40582;53.100;6.686;2022-09-30T06:29:26;6.50;99.90
54684;DHT22;40582;53.100;6.686;2022-09-30T06:31:52;6.60;99.90
54684;DHT22;40582;53.100;6.686;2022-09-30T06:34:17;6.60;99.90
54684;DHT22;40582;53.100;6.686;2022-09-30T06:36:43;6.60;99.90
54684;DHT22;40582;53.100;6.686;2022-09-30T06:39:09;6.70;99.90
54684;DHT22;40582;53.100;6.686;2022-09-30T06:41:35;6.80;99.90
54684;DHT22;40582;53.100;6.686;2022-09-30T06:44:04;6.70;99.90
54684;DHT22;40582;53.100;6.686;2022-09-30T06:46:30;6.70;99.90
54684;DHT22;40582;53.100;6.686;2022-09-30T06:48:56;6.70;99.90
54684;DHT22;40582;53.100;6.686;2022-09-30T06:51:22;6.70;99.90
54684;DHT22;40582;53.100;6.686;2022-09-30T06:53:51;6.80;99.90
54684;DHT22;40582;53.100;6.686;2022-09-30T06:56:18;6.90;99.90
54684;DHT22;40582;53.100;6.686;2022-09-30T06:58:44;6.80;99.90
54684;DHT22;40582;53.100;6.686;2022-09-30T07:01:11;6.90;99.90
54684;DHT22;40582;53.100;6.686;2022-09-30T07:03:43;6.90;99.90
54684;DHT22;40582;53.100;6.686;2022-09-30T07:06:11;6.90;99.90
54684;DHT22;40582;53.100;6.686;2022-09-30T07:08:38;6.90;99.90
54684;DHT22;40582;53.100;6.686;2022-09-30T07:11:09;7.00;99.90
54684;DHT22;40582;53.100;6.686;2022-09-30T07:13:36;7.00;99.90
54684;DHT22;40582;53.100;6.686;2022-09-30T07:16:02;7.00;99.90
54684;DHT22;40582;53.100;6.686;2022-09-30T07:18:27;7.00;99.90
54684;DHT22;40582;53.100;6.686;2022-09-30T07:20:54;7.10;99.90
54684;DHT22;40582;53.100;6.686;2022-09-30T07:23:21;7.10;99.90
54684;DHT22;40582;53.100;6.686;2022-09-30T07:25:52;7.20;99.90
54684;DHT22;40582;53.100;6.686;2022-09-30T07:28:19;7.20;99.90
54684;DHT22;40582;53.100;6.686;2022-09-30T07:30:44;7.30;99.90
54684;DHT22;40582;53.100;6.686;2022-09-30T07:33:10;7.30;99.90
54684;DHT22;40582;53.100;6.686;2022-09-30T07:35:51;7.40;99.90
54684;DHT22;40582;53.100;6.686;2022-09-30T07:38:18;7.40;99.90
54684;DHT22;40582;53.100;6.686;2022-09-30T07:43:36;7.60;99.90
54684;DHT22;40582;53.100;6.686;2022-09-30T07:46:21;7.70;99.90
54684;DHT22;40582;53.100;6.686;2022-09-30T07:48:52;7.80;99.90
54684;DHT22;40582;53.100;6.686;2022-09-30T07:51:28;7.90;99.90
54684;DHT22;40582;53.100;6.686;2022-09-30T07:54:13;8.10;99.90
54684;DHT22;40582;53.100;6.686;2022-09-30T07:56:39;8.20;99.90
54684;DHT22;40582;53.100;6.686;2022-09-30T07:59:06;8.30;99.90
54684;DHT22;40582;53.100;6.686;2022-09-30T08:01:32;8.50;99.90
54684;DHT22;40582;53.100;6.686;2022-09-30T08:04:01;8.70;99.90
54684;DHT22;40582;53.100;6.686;2022-09-30T08:06:29;8.70;99.90
54684;DHT22;40582;53.100;6.686;2022-09-30T08:08:56;8.80;99.90
54684;DHT22;40582;53.100;6.686;2022-09-30T08:11:23;9.20;99.90
54684;DHT22;40582;53.100;6.686;2022-09-30T08:13:53;9.10;99.90
54684;DHT22;40582;53.100;6.686;2022-09-30T08:16:20;9.30;99.90
54684;DHT22;40582;53.100;6.686;2022-09-30T08:18:46;9.60;99.90
54684;DHT22;40582;53.100;6.686;2022-09-30T08:21:12;9.50;99.90
54684;DHT22;40582;53.100;6.686;2022-09-30T08:23:38;9.60;99.90
54684;DHT22;40582;53.100;6.686;2022-09-30T08:26:07;9.70;99.90
54684;DHT22;40582;53.100;6.686;2022-09-30T08:28:34;9.90;99.90
54684;DHT22;40582;53.100;6.686;2022-09-30T08:31:09;10.00;99.90
54684;DHT22;40582;53.100;6.686;2022-09-30T08:33:35;10.10;99.90
54684;DHT22;40582;53.100;6.686;2022-09-30T08:36:05;10.20;99.90
54684;DHT22;40582;53.100;6.686;2022-09-30T08:38:31;10.20;99.90
54684;DHT22;40582;53.100;6.686;2022-09-30T08:52:45;10.60;99.90
54684;DHT22;40582;53.100;6.686;2022-09-30T08:55:20;10.60;99.90
54684;DHT22;40582;53.100;6.686;2022-09-30T08:57:47;10.60;99.90
54684;DHT22;40582;53.100;6.686;2022-09-30T09:00:16;10.60;99.90
54684;DHT22;40582;53.100;6.686;2022-09-30T09:02:52;10.70;99.90
54684;DHT22;40582;53.100;6.686;2022-09-30T09:05:37;10.60;99.90
54684;DHT22;40582;53.100;6.686;2022-09-30T09:08:18;10.60;99.90
54684;DHT22;40582;53.100;6.686;2022-09-30T09:10:50;10.50;99.90
54684;DHT22;40582;53.100;6.686;2022-09-30T09:16:32;10.50;99.90
54684;DHT22;40582;53.100;6.686;2022-09-30T09:19:12;10.50;99.90
54684;DHT22;40582;53.100;6.686;2022-09-30T09:24:13;10.50;99.90
54684;DHT22;40582;53.100;6.686;2022-09-30T09:26:39;10.50;99.90
54684;DHT22;40582;53.100;6.686;2022-09-30T09:31:39;10.50;99.90
54684;DHT22;40582;53.100;6.686;2022-09-30T09:34:11;10.50;99.90
54684;DHT22;40582;53.100;6.686;2022-09-30T09:47:52;11.00;99.90
54684;DHT22;40582;53.100;6.686;2022-09-30T09:50:25;11.10;99.90
54684;DHT22;40582;53.100;6.686;2022-09-30T09:53:21;11.20;99.90
54684;DHT22;40582;53.100;6.686;2022-09-30T09:55:54;11.30;99.90
54684;DHT22;40582;53.100;6.686;2022-09-30T09:58:19;11.40;99.90
54684;DHT22;40582;53.100;6.686;2022-09-30T10:00:46;11.50;99.90
54684;DHT22;40582;53.100;6.686;2022-09-30T10:03:23;11.60;99.90
54684;DHT22;40582;53.100;6.686;2022-09-30T10:08:31;11.90;99.90
54684;DHT22;40582;53.100;6.686;2022-09-30T10:10:59;12.10;99.90
54684;DHT22;40582;53.100;6.686;2022-09-30T10:13:42;12.30;99.90
54684;DHT22;40582;53.100;6.686;2022-09-30T10:16:34;12.50;99.90
54684;DHT22;40582;53.100;6.686;2022-09-30T10:19:03;12.70;99.90
54684;DHT22;40582;53.100;6.686;2022-09-30T10:21:30;12.90;99.90
54684;DHT22;40582;53.100;6.686;2022-09-30T10:23:56;13.10;99.90
54684;DHT22;40582;53.100;6.686;2022-09-30T10:26:26;13.20;99.90
54684;DHT22;40582;53.100;6.686;2022-09-30T10:28:54;13.40;99.90
54684;DHT22;40582;53.100;6.686;2022-09-30T10:31:33;13.60;99.90
54684;DHT22;40582;53.100;6.686;2022-09-30T10:34:10;13.70;99.90
54684;DHT22;40582;53.100;6.686;2022-09-30T10:36:40;13.90;99.90
54684;DHT22;40582;53.100;6.686;2022-09-30T10:39:28;14.00;99.90
54684;DHT22;40582;53.100;6.686;2022-09-30T10:42:18;14.20;99.90
54684;DHT22;40582;53.100;6.686;2022-09-30T10:44:54;14.20;99.90
54684;DHT22;40582;53.100;6.686;2022-09-30T10:47:23;14.10;99.90
54684;DHT22;40582;53.100;6.686;2022-09-30T10:50:11;14.30;99.90
54684;DHT22;40582;53.100;6.686;2022-09-30T10:52:40;14.40;99.90
54684;DHT22;40582;53.100;6.686;2022-09-30T10:57:51;14.70;99.90
54684;DHT22;40582;53.100;6.686;2022-09-30T11:00:24;14.90;99.90
54684;DHT22;40582;53.100;6.686;2022-09-30T11:03:04;15.00;99.90
54684;DHT22;40582;53.100;6.686;2022-09-30T11:05:58;15.20;99.90
54684;DHT22;40582;53.100;6.686;2022-09-30T11:11:24;15.30;99.90
54684;DHT22;40582;53.100;6.686;2022-09-30T11:16:55;15.50;99.90
54684;DHT22;40582;53.100;6.686;2022-09-30T11:19:47;15.50;99.90
54684;DHT22;40582;53.100;6.686;2022-09-30T11:25:07;15.70;99.90
54684;DHT22;40582;53.100;6.686;2022-09-30T11:30:32;16.10;99.90
54684;DHT22;40582;53.100;6.686;2022-09-30T11:36:06;16.30;99.90
54684;DHT22;40582;53.100;6.686;2022-09-30T11:41:37;15.70;99.90
54684;DHT22;40582;53.100;6.686;2022-09-30T11:49:43;16.20;99.90
54684;DHT22;40582;53.100;6.686;2022-09-30T11:57:39;16.70;99.90
54684;DHT22;40582;53.100;6.686;2022-09-30T12:02:44;16.30;99.90
54684;DHT22;40582;53.100;6.686;2022-09-30T12:05:24;16.40;99.90
54684;DHT22;40582;53.100;6.686;2022-09-30T12:10:38;16.30;99.90
54684;DHT22;40582;53.100;6.686;2022-09-30T12:13:10;16.10;99.90
54684;DHT22;40582;53.100;6.686;2022-09-30T12:15:40;15.80;99.90
54684;DHT22;40582;53.100;6.686;2022-09-30T12:18:12;15.60;99.90
54684;DHT22;40582;53.100;6.686;2022-09-30T12:20:50;15.40;99.90
54684;DHT22;40582;53.100;6.686;2022-09-30T12:23:29;15.40;99.90
54684;DHT22;40582;53.100;6.686;2022-09-30T12:25:59;15.60;99.90
54684;DHT22;40582;53.100;6.686;2022-09-30T12:45:32;16.20;99.90
54684;DHT22;40582;53.100;6.686;2022-09-30T12:48:03;16.00;99.90
54684;DHT22;40582;53.100;6.686;2022-09-30T12:50:39;16.10;99.90
54684;DHT22;40582;53.100;6.686;2022-09-30T12:53:28;16.10;99.90
54684;DHT22;40582;53.100;6.686;2022-09-30T12:56:11;16.00;99.90
54684;DHT22;40582;53.100;6.686;2022-09-30T12:58:42;15.90;99.90
54684;DHT22;40582;53.100;6.686;2022-09-30T13:01:16;16.00;99.90
54684;DHT22;40582;53.100;6.686;2022-09-30T13:03:47;16.30;99.90
54684;DHT22;40582;53.100;6.686;2022-09-30T13:06:14;16.40;99.90
54684;DHT22;40582;53.100;6.686;2022-09-30T13:09:16;16.60;99.90
54684;DHT22;40582;53.100;6.686;2022-09-30T13:11:42;16.50;99.90
54684;DHT22;40582;53.100;6.686;2022-09-30T13:19:33;16.30;99.90
54684;DHT22;40582;53.100;6.686;2022-09-30T13:32:40;16.10;99.90
54684;DHT22;40582;53.100;6.686;2022-09-30T13:38:21;16.00;99.90
54684;DHT22;40582;53.100;6.686;2022-09-30T13:41:06;16.20;99.90
54684;DHT22;40582;53.100;6.686;2022-09-30T13:43:57;16.50;99.90
54684;DHT22;40582;53.100;6.686;2022-09-30T13:46:33;16.60;99.90
54684;DHT22;40582;53.100;6.686;2022-09-30T13:49:24;16.60;99.90
54684;DHT22;40582;53.100;6.686;2022-09-30T13:51:54;16.40;99.90
54684;DHT22;40582;53.100;6.686;2022-09-30T13:54:30;16.20;99.90
54684;DHT22;40582;53.100;6.686;2022-09-30T13:56:59;15.90;99.90
54684;DHT22;40582;53.100;6.686;2022-09-30T14:08:26;15.60;99.90
54684;DHT22;40582;53.100;6.686;2022-09-30T14:14:11;15.40;99.90
54684;DHT22;40582;53.100;6.686;2022-09-30T14:21:57;15.80;99.90
54684;DHT22;40582;53.100;6.686;2022-09-30T14:24:32;15.80;99.90
54684;DHT22;40582;53.100;6.686;2022-09-30T14:32:30;15.80;99.90
54684;DHT22;40582;53.100;6.686;2022-09-30T14:34:58;15.60;99.90
54684;DHT22;40582;53.100;6.686;2022-09-30T14:37:30;15.40;99.90
54684;DHT22;40582;53.100;6.686;2022-09-30T14:39:56;15.30;99.90
54684;DHT22;40582;53.100;6.686;2022-09-30T14:42:35;15.10;99.90
54684;DHT22;40582;53.100;6.686;2022-09-30T14:45:04;14.90;99.90
54684;DHT22;40582;53.100;6.686;2022-09-30T14:47:50;14.80;99.90
54684;DHT22;40582;53.100;6.686;2022-09-30T14:50:20;14.80;99.90
54684;DHT22;40582;53.100;6.686;2022-09-30T14:52:48;14.90;99.90
54684;DHT22;40582;53.100;6.686;2022-09-30T14:55:32;14.90;99.90
54684;DHT22;40582;53.100;6.686;2022-09-30T15:03:27;14.90;99.90
54684;DHT22;40582;53.100;6.686;2022-09-30T15:05:54;14.80;99.90
54684;DHT22;40582;53.100;6.686;2022-09-30T15:08:21;14.80;99.90
54684;DHT22;40582;53.100;6.686;2022-09-30T15:10:49;14.70;99.90
54684;DHT22;40582;53.100;6.686;2022-09-30T15:13:17;14.60;99.90
54684;DHT22;40582;53.100;6.686;2022-09-30T15:15:44;14.60;99.90
54684;DHT22;40582;53.100;6.686;2022-09-30T15:18:24;14.60;99.90
54684;DHT22;40582;53.100;6.686;2022-09-30T15:20:51;14.60;99.90
54684;DHT22;40582;53.100;6.686;2022-09-30T15:23:30;14.60;99.90
54684;DHT22;40582;53.100;6.686;2022-09-30T15:25:57;14.60;99.90
54684;DHT22;40582;53.100;6.686;2022-09-30T15:28:23;14.60;99.90
54684;DHT22;40582;53.100;6.686;2022-09-30T15:30:50;14.50;99.90
54684;DHT22;40582;53.100;6.686;2022-09-30T15:33:21;14.50;99.90
54684;DHT22;40582;53.100;6.686;2022-09-30T15:35:49;14.50;99.90
54684;DHT22;40582;53.100;6.686;2022-09-30T15:38:22;14.40;99.90
54684;DHT22;40582;53.100;6.686;2022-09-30T15:41:09;14.40;99.90
54684;DHT22;40582;53.100;6.686;2022-09-30T15:43:37;14.30;99.90
54684;DHT22;40582;53.100;6.686;2022-09-30T15:46:25;14.30;99.90
54684;DHT22;40582;53.100;6.686;2022-09-30T15:48:53;14.20;99.90
54684;DHT22;40582;53.100;6.686;2022-09-30T15:53:56;14.10;99.90
54684;DHT22;40582;53.100;6.686;2022-09-30T15:56:26;14.00;99.90
54684;DHT22;40582;53.100;6.686;2022-09-30T16:01:43;13.90;99.90
54684;DHT22;40582;53.100;6.686;2022-09-30T16:04:30;13.90;99.90
54684;DHT22;40582;53.100;6.686;2022-09-30T16:07:05;13.80;99.90
54684;DHT22;40582;53.100;6.686;2022-09-30T16:09:35;13.80;99.90
54684;DHT22;40582;53.100;6.686;2022-09-30T16:14:45;13.90;99.90
54684;DHT22;40582;53.100;6.686;2022-09-30T16:17:31;13.90;99.90
54684;DHT22;40582;53.100;6.686;2022-09-30T16:20:06;13.90;99.90
54684;DHT22;40582;53.100;6.686;2022-09-30T16:25:31;13.90;99.90
54684;DHT22;40582;53.100;6.686;2022-09-30T16:28:09;13.90;99.90
54684;DHT22;40582;53.100;6.686;2022-09-30T16:30:47;13.80;99.90
54684;DHT22;40582;53.100;6.686;2022-09-30T16:33:14;13.80;99.90
54684;DHT22;40582;53.100;6.686;2022-09-30T16:35:44;13.80;99.90
54684;DHT22;40582;53.100;6.686;2022-09-30T16:38:13;13.70;99.90
54684;DHT22;40582;53.100;6.686;2022-09-30T16:40:39;13.60;99.90
54684;DHT22;40582;53.100;6.686;2022-09-30T16:43:06;13.60;99.90
54684;DHT22;40582;53.100;6.686;2022-09-30T16:45:32;13.50;99.90
54684;DHT22;40582;53.100;6.686;2022-09-30T16:47:59;13.50;99.90
54684;DHT22;40582;53.100;6.686;2022-09-30T16:53:36;13.40;99.90
54684;DHT22;40582;53.100;6.686;2022-09-30T16:56:03;13.50;99.90
54684;DHT22;40582;53.100;6.686;2022-09-30T16:58:29;13.40;99.90
54684;DHT22;40582;53.100;6.686;2022-09-30T17:00:56;13.40;99.90
54684;DHT22;40582;53.100;6.686;2022-09-30T17:03:25;13.40;99.90
54684;DHT22;40582;53.100;6.686;2022-09-30T17:05:51;13.40;99.90
54684;DHT22;40582;53.100;6.686;2022-09-30T17:08:21;13.30;99.90
54684;DHT22;40582;53.100;6.686;2022-09-30T17:10:48;13.20;99.90
54684;DHT22;40582;53.100;6.686;2022-09-30T17:13:15;13.10;99.90
54684;DHT22;40582;53.100;6.686;2022-09-30T17:15:45;13.10;99.90
54684;DHT22;40582;53.100;6.686;2022-09-30T17:18:12;12.90;99.90
54684;DHT22;40582;53.100;6.686;2022-09-30T17:20:42;12.90;99.90
54684;DHT22;40582;53.100;6.686;2022-09-30T17:23:08;12.80;99.90
54684;DHT22;40582;53.100;6.686;2022-09-30T17:25:38;12.80;99.90
54684;DHT22;40582;53.100;6.686;2022-09-30T17:28:05;12.80;99.90
54684;DHT22;40582;53.100;6.686;2022-09-30T17:30:31;12.70;99.90
54684;DHT22;40582;53.100;6.686;2022-09-30T17:32:57;12.60;99.90
54684;DHT22;40582;53.100;6.686;2022-09-30T17:35:23;12.60;99.90
54684;DHT22;40582;53.100;6.686;2022-09-30T17:37:49;12.60;99.90
54684;DHT22;40582;53.100;6.686;2022-09-30T17:40:15;12.50;99.90
54684;DHT22;40582;53.100;6.686;2022-09-30T17:42:59;12.50;99.90
54684;DHT22;40582;53.100;6.686;2022-09-30T17:45:32;12.40;99.90
54684;DHT22;40582;53.100;6.686;2022-09-30T17:47:57;12.40;99.90
54684;DHT22;40582;53.100;6.686;2022-09-30T17:50:23;12.40;99.90
54684;DHT22;40582;53.100;6.686;2022-09-30T17:52:49;12.40;99.90
54684;DHT22;40582;53.100;6.686;2022-09-30T17:55:15;12.40;99.90
54684;DHT22;40582;53.100;6.686;2022-09-30T17:57:41;12.30;99.90
54684;DHT22;40582;53.100;6.686;2022-09-30T18:00:07;12.30;99.90
54684;DHT22;40582;53.100;6.686;2022-09-30T18:02:33;12.30;99.90
54684;DHT22;40582;53.100;6.686;2022-09-30T18:04:58;12.20;99.90
54684;DHT22;40582;53.100;6.686;2022-09-30T18:07:24;12.20;99.90
54684;DHT22;40582;53.100;6.686;2022-09-30T18:09:52;12.10;99.90
54684;DHT22;40582;53.100;6.686;2022-09-30T18:12:17;12.10;99.90
54684;DHT22;40582;53.100;6.686;2022-09-30T18:14:43;12.00;99.90
54684;DHT22;40582;53.100;6.686;2022-09-30T18:17:09;12.00;99.90
54684;DHT22;40582;53.100;6.686;2022-09-30T18:19:35;12.00;99.90
54684;DHT22;40582;53.100;6.686;2022-09-30T18:22:01;12.00;99.90
54684;DHT22;40582;53.100;6.686;2022-09-30T18:24:27;12.00;99.90
54684;DHT22;40582;53.100;6.686;2022-09-30T18:27:11;12.00;99.90
54684;DHT22;40582;53.100;6.686;2022-09-30T18:29:37;11.90;99.90
54684;DHT22;40582;53.100;6.686;2022-09-30T18:32:03;11.80;99.90
54684;DHT22;40582;53.100;6.686;2022-09-30T18:34:30;11.80;99.90
54684;DHT22;40582;53.100;6.686;2022-09-30T18:36:56;11.80;99.90
54684;DHT22;40582;53.100;6.686;2022-09-30T18:39:30;11.80;99.90
54684;DHT22;40582;53.100;6.686;2022-09-30T18:41:56;11.70;99.90
54684;DHT22;40582;53.100;6.686;2022-09-30T18:44:21;11.60;99.90
54684;DHT22;40582;53.100;6.686;2022-09-30T18:46:47;11.70;99.90
54684;DHT22;40582;53.100;6.686;2022-09-30T18:49:13;11.60;99.90
54684;DHT22;40582;53.100;6.686;2022-09-30T18:51:38;11.60;99.90
54684;DHT22;40582;53.100;6.686;2022-09-30T18:54:05;11.60;99.90
54684;DHT22;40582;53.100;6.686;2022-09-30T18:56:31;11.50;99.90
54684;DHT22;40582;53.100;6.686;2022-09-30T18:58:58;11.50;99.90
54684;DHT22;40582;53.100;6.686;2022-09-30T19:01:24;11.50;99.90
54684;DHT22;40582;53.100;6.686;2022-09-30T19:03:51;11.50;99.90
54684;DHT22;40582;53.100;6.686;2022-09-30T19:06:17;11.50;99.90
54684;DHT22;40582;53.100;6.686;2022-09-30T19:08:43;11.50;99.90
54684;DHT22;40582;53.100;6.686;2022-09-30T19:11:09;11.50;99.90
54684;DHT22;40582;53.100;6.686;2022-09-30T19:13:43;11.50;99.90
54684;DHT22;40582;53.100;6.686;2022-09-30T19:16:10;11.50;99.90
54684;DHT22;40582;53.100;6.686;2022-09-30T19:18:39;11.50;99.90